Time;durP1;ratioP1;P1;durP2;ratioP2;P2;SDS_P1;SDS_P2;PMS_P1;PMS_P2;Temp;Humidity;BMP_temperature;BMP_pressure;BME280_temperature;BME280_humidity;BME280_pressure;Samples;Min_cycle;Max_cycle;Signal;HPM_P1;HPM_P2
2022/04/08 00:02:31;;;;;;;1.80;0.50;;;;;;;14.24;47.59;96531.39;233231;1217;140921;-57
2022/04/08 00:07:34;;;;;;;1.80;0.60;;;;;;;14.19;47.71;96541.27;233273;1217;138862;-58
2022/04/08 00:12:37;;;;;;;0.40;0.40;;;;;;;14.15;48.07;96520.54;233471;1217;138929;-57
2022/04/08 00:17:40;;;;;;;3.20;1.30;;;;;;;14.11;48.26;96540.06;233376;1217;139051;-57
2022/04/08 00:22:43;;;;;;;5.70;1.50;;;;;;;14.07;48.72;96547.61;233410;1217;138861;-57
2022/04/08 00:27:46;;;;;;;4.40;1.60;;;;;;;13.97;48.93;96547.80;233200;1217;139219;-55
2022/04/08 00:32:51;;;;;;;3.70;1.50;;;;;;;13.83;49.25;96553.23;233216;1217;139107;-58
2022/04/08 00:37:54;;;;;;;5.40;1.70;;;;;;;13.71;49.82;96553.89;233328;1217;139128;-59
2022/04/08 00:42:57;;;;;;;2.40;1.30;;;;;;;13.59;50.18;96584.02;233303;1217;139602;-58
2022/04/08 00:48:06;;;;;;;2.80;1.20;;;;;;;13.34;50.62;96600.86;233222;1217;138893;-57
2022/04/08 00:53:09;;;;;;;3.10;1.30;;;;;;;13.12;51.09;96619.40;233470;1217;139158;-59
2022/04/08 00:58:13;;;;;;;3.30;1.70;;;;;;;12.94;52.00;96629.55;233302;1217;138833;-58
2022/04/08 01:03:16;;;;;;;5.30;1.30;;;;;;;12.76;52.54;96613.59;233399;1217;138971;-59
2022/04/08 01:08:20;;;;;;;2.30;1.30;;;;;;;12.58;52.75;96625.48;233283;1217;139419;-59
2022/04/08 01:13:23;;;;;;;2.80;1.20;;;;;;;12.42;53.11;96634.64;233275;1217;139174;-57
2022/04/08 01:18:26;;;;;;;1.70;0.90;;;;;;;12.34;53.74;96648.90;233297;1217;138755;-58
2022/04/08 01:23:29;;;;;;;3.60;1.20;;;;;;;12.27;53.75;96656.16;233525;1216;138611;-59
2022/04/08 01:28:33;;;;;;;3.00;1.20;;;;;;;12.21;54.15;96680.98;233297;1217;139374;-58
2022/04/08 01:33:36;;;;;;;3.30;1.20;;;;;;;12.18;54.41;96689.91;233331;1217;139004;-59
2022/04/08 01:38:39;;;;;;;2.90;1.70;;;;;;;12.16;54.90;96709.16;233227;1217;141449;-58
2022/04/08 01:43:45;;;;;;;2.60;1.40;;;;;;;12.15;55.13;96695.40;233199;1217;138747;-59
2022/04/08 01:48:51;;;;;;;;;;;;;;;12.18;55.41;96707.66;233267;1217;139221;-59
2022/04/08 01:53:53;;;;;;;3.20;1.30;;;;;;;12.16;55.43;96717.46;233487;1217;126434;-59
2022/04/08 01:58:56;;;;;;;2.90;1.60;;;;;;;12.15;55.21;96732.94;233383;1217;139617;-57
2022/04/08 02:03:59;;;;;;;1.80;1.10;;;;;;;12.14;56.06;96744.88;233379;1216;138775;-56
2022/04/08 02:09:03;;;;;;;3.90;0.90;;;;;;;12.02;54.79;96753.55;233231;1217;138551;-57
2022/04/08 02:14:06;;;;;;;3.10;0.90;;;;;;;11.81;53.41;96720.05;233319;1217;138447;-56
2022/04/08 02:19:09;;;;;;;4.30;1.10;;;;;;;11.63;53.37;96713.90;233225;1217;138979;-58
2022/04/08 02:24:13;;;;;;;4.30;1.10;;;;;;;11.53;53.29;96710.91;233228;1217;138905;-58
2022/04/08 02:29:16;;;;;;;1.60;0.80;;;;;;;11.49;52.92;96712.60;233432;1217;139003;-57
2022/04/08 02:34:19;;;;;;;2.80;0.90;;;;;;;11.47;53.36;96727.66;233218;1215;138662;-56
2022/04/08 02:39:22;;;;;;;6.30;1.00;;;;;;;11.45;53.32;96747.62;233350;1217;138761;-59
2022/04/08 02:44:25;;;;;;;2.00;0.90;;;;;;;11.43;53.60;96765.52;232998;1218;138829;-58
2022/04/08 02:49:28;;;;;;;2.70;1.00;;;;;;;11.41;53.84;96761.48;233258;1217;138627;-60
2022/04/08 02:54:31;;;;;;;3.50;1.10;;;;;;;11.38;54.01;96758.42;233221;1217;139293;-59
2022/04/08 02:59:34;;;;;;;2.70;1.00;;;;;;;11.29;52.89;96751.70;233460;1217;138833;-57
2022/04/08 03:04:37;;;;;;;1.50;0.80;;;;;;;11.23;52.43;96759.42;233232;1217;139359;-59
2022/04/08 03:09:40;;;;;;;2.80;0.80;;;;;;;11.23;51.69;96763.49;233249;1217;139064;-58
2022/04/08 03:14:43;;;;;;;4.10;1.10;;;;;;;11.19;51.65;96786.65;233538;1217;138488;-61
2022/04/08 03:19:46;;;;;;;3.50;1.30;;;;;;;11.17;50.84;96793.25;233303;1217;138696;-58
2022/04/08 03:24:52;;;;;;;3.20;1.00;;;;;;;11.18;50.88;96801.79;233331;1217;138997;-59
2022/04/08 03:29:55;;;;;;;2.30;0.90;;;;;;;11.19;50.62;96815.77;233129;1217;140168;-60
2022/04/08 03:34:58;;;;;;;2.50;0.90;;;;;;;11.17;50.29;96830.50;233292;1217;138952;-61
2022/04/08 03:40:01;;;;;;;4.20;1.00;;;;;;;11.11;50.08;96832.94;233254;1217;138628;-59
2022/04/08 03:45:05;;;;;;;3.30;0.90;;;;;;;11.06;49.65;96850.36;233372;1217;139179;-57
2022/04/08 03:50:08;;;;;;;2.10;0.80;;;;;;;11.01;49.38;96867.41;233300;1217;138731;-59
2022/04/08 03:55:11;;;;;;;6.30;1.20;;;;;;;11.00;49.22;96871.00;233321;1217;138991;-59
2022/04/08 04:00:15;;;;;;;3.00;0.80;;;;;;;11.02;49.30;96879.34;233272;1217;139538;-59
2022/04/08 04:05:18;;;;;;;3.30;1.20;;;;;;;11.00;49.21;96885.77;233417;1217;141510;-60
2022/04/08 04:10:21;;;;;;;6.60;1.10;;;;;;;10.96;48.61;96893.58;233338;1215;139799;-54
2022/04/08 04:15:24;;;;;;;6.30;1.10;;;;;;;10.92;48.69;96907.84;233266;1217;138898;-59
2022/04/08 04:20:26;;;;;;;3.80;1.20;;;;;;;10.90;48.28;96920.95;233339;1217;141786;-57
2022/04/08 04:25:30;;;;;;;3.40;1.00;;;;;;;10.81;47.79;96925.75;233264;1216;139025;-58
2022/04/08 04:30:33;;;;;;;5.80;1.20;;;;;;;10.79;47.84;96933.88;233318;1217;138919;-57
2022/04/08 04:35:37;;;;;;;4.70;1.20;;;;;;;10.78;47.51;96936.33;233330;1217;139275;-57
2022/04/08 04:40:40;;;;;;;6.90;1.40;;;;;;;10.76;47.46;96943.05;233340;1217;139024;-56
2022/04/08 04:45:43;;;;;;;5.40;1.10;;;;;;;10.72;46.85;96954.64;233239;1217;138921;-56
2022/04/08 04:50:47;;;;;;;5.40;1.30;;;;;;;10.69;46.76;96966.83;233071;1219;138749;-58
2022/04/08 04:55:49;;;;;;;5.70;1.20;;;;;;;10.69;46.58;96964.38;233247;1217;138550;-57
2022/04/08 05:00:52;;;;;;;5.40;1.20;;;;;;;10.71;46.33;96969.62;233209;1217;140091;-57
2022/04/08 05:05:56;;;;;;;6.00;1.60;;;;;;;10.73;46.14;96965.02;233127;1219;140070;-59
2022/04/08 05:10:58;;;;;;;4.70;1.40;;;;;;;10.76;45.85;96969.87;233323;1217;138803;-59
2022/04/08 05:16:02;;;;;;;6.00;1.50;;;;;;;10.75;45.46;96980.98;233438;1217;141766;-57
2022/04/08 05:21:05;;;;;;;7.70;1.70;;;;;;;10.78;45.52;96990.66;233274;1217;139718;-58
2022/04/08 05:26:08;;;;;;;8.50;2.00;;;;;;;10.78;45.44;96995.02;233192;1217;138987;-58
2022/04/08 05:31:11;;;;;;;28.00;16.20;;;;;;;10.80;45.49;96999.66;233061;1216;139569;-57
2022/04/08 05:36:14;;;;;;;6.10;1.90;;;;;;;10.85;45.61;97008.69;233288;1217;139371;-58
2022/04/08 05:41:21;;;;;;;5.20;2.00;;;;;;;10.93;45.65;97011.66;233346;1217;138896;-60
2022/04/08 05:46:24;;;;;;;54.00;33.30;;;;;;;10.92;45.70;97022.63;233313;1217;139696;-61
2022/04/08 05:51:27;;;;;;;9.40;2.90;;;;;;;10.94;45.65;97022.02;233299;1217;139242;-58
2022/04/08 05:56:42;;;;;;;5.30;1.50;;;;;;;10.94;45.42;97031.31;233240;1217;138892;-59
2022/04/08 06:01:45;;;;;;;6.40;1.10;;;;;;;10.95;45.66;97036.81;233232;1217;139364;-58
2022/04/08 06:06:50;;;;;;;7.50;1.50;;;;;;;10.94;45.12;97044.22;233153;1217;139024;-59
2022/04/08 06:11:53;;;;;;;9.70;3.90;;;;;;;10.95;45.11;97048.77;233241;1217;139256;-58
2022/04/08 06:16:56;;;;;;;4.90;1.60;;;;;;;11.00;45.00;97053.78;233523;1217;139008;-60
2022/04/08 06:22:00;;;;;;;6.30;1.40;;;;;;;11.02;44.58;97060.09;233154;1217;139189;-60
2022/04/08 06:27:03;;;;;;;6.50;1.30;;;;;;;11.03;44.29;97061.80;233251;1217;139100;-62
2022/04/08 06:32:06;;;;;;;4.10;1.30;;;;;;;11.02;44.19;97070.84;233259;1217;138796;-60
2022/04/08 06:37:09;;;;;;;51.00;35.70;;;;;;;11.04;44.19;97071.83;233180;1217;138942;-61
2022/04/08 06:42:13;;;;;;;5.40;2.20;;;;;;;11.09;44.21;97072.56;233125;1217;139043;-60
2022/04/08 06:47:17;;;;;;;6.50;1.70;;;;;;;11.15;43.79;97088.05;233428;1217;138417;-61
2022/04/08 06:52:20;;;;;;;5.10;1.20;;;;;;;11.13;43.27;97087.69;233252;1217;138984;-58
2022/04/08 06:57:23;;;;;;;7.20;1.50;;;;;;;11.17;43.33;97090.86;233253;1217;139241;-57
2022/04/08 07:02:26;;;;;;;4.70;1.20;;;;;;;11.29;43.60;97098.94;233232;1217;139515;-58
2022/04/08 07:07:36;;;;;;;6.10;1.20;;;;;;;11.35;43.15;97107.56;233278;1217;139443;-59
2022/04/08 07:12:39;;;;;;;3.60;1.00;;;;;;;11.40;42.91;97117.02;233253;1217;139033;-58
2022/04/08 07:17:43;;;;;;;5.70;1.50;;;;;;;11.43;42.25;97128.30;233202;1217;140317;-59
2022/04/08 07:22:51;;;;;;;6.30;1.10;;;;;;;11.50;42.50;97120.72;233250;1217;139098;-62
2022/04/08 07:27:58;;;;;;;193.90;113.90;;;;;;;11.64;42.35;97150.27;233187;1217;138934;-61
2022/04/08 07:33:03;;;;;;;8.30;2.30;;;;;;;11.76;42.27;97149.39;233302;1217;141053;-61
2022/04/08 07:38:06;;;;;;;4.70;1.40;;;;;;;11.84;41.72;97154.38;233149;1217;138875;-59
2022/04/08 07:43:09;;;;;;;4.60;1.40;;;;;;;11.80;41.72;97159.67;233147;1217;139587;-60
2022/04/08 07:48:12;;;;;;;5.50;1.40;;;;;;;11.76;41.81;97167.50;233224;1217;138757;-58
2022/04/08 07:53:15;;;;;;;5.70;1.20;;;;;;;11.74;41.55;97173.10;233290;1217;139009;-59
2022/04/08 07:58:18;;;;;;;8.60;1.60;;;;;;;11.78;41.62;97177.65;233186;1217;139043;-60
2022/04/08 08:03:21;;;;;;;4.10;1.00;;;;;;;11.85;41.52;97174.72;233161;1217;138864;-60
2022/04/08 08:08:24;;;;;;;5.40;1.40;;;;;;;11.88;40.98;97182.13;233154;1217;139086;-60
2022/04/08 08:13:27;;;;;;;4.40;1.30;;;;;;;11.94;40.88;97181.27;233129;1217;138714;-60
2022/04/08 08:18:30;;;;;;;6.60;1.40;;;;;;;12.03;40.90;97192.43;233116;1216;141040;-59
2022/04/08 08:23:33;;;;;;;5.10;2.80;;;;;;;12.02;40.85;97195.81;233281;1217;139051;-59
2022/04/08 08:28:36;;;;;;;4.20;1.40;;;;;;;12.04;40.80;97219.95;233190;1217;139260;-60
2022/04/08 08:33:40;;;;;;;5.70;1.10;;;;;;;12.10;40.34;97219.77;233058;1217;139513;-58
2022/04/08 08:38:43;;;;;;;3.00;1.20;;;;;;;12.17;40.50;97227.02;233045;1217;138744;-58
2022/04/08 08:43:47;;;;;;;5.00;1.20;;;;;;;12.18;40.25;97244.56;233182;1217;138347;-60
2022/04/08 08:48:53;;;;;;;8.20;1.60;;;;;;;12.17;40.37;97249.59;233299;1217;139519;-59
2022/04/08 08:53:56;;;;;;;7.50;1.50;;;;;;;12.17;40.13;97246.58;233236;1217;139324;-58
2022/04/08 08:58:59;;;;;;;5.70;1.30;;;;;;;12.15;39.85;97259.09;233290;1217;139603;-60
2022/04/08 09:04:02;;;;;;;5.80;1.20;;;;;;;12.12;39.83;97269.13;233242;1216;138625;-58
2022/04/08 09:09:05;;;;;;;5.30;1.10;;;;;;;12.09;39.60;97265.69;233194;1217;139243;-60
2022/04/08 09:14:08;;;;;;;5.60;1.30;;;;;;;12.12;39.65;97276.65;233186;1217;139134;-60
2022/04/08 09:19:17;;;;;;;5.50;1.10;;;;;;;12.18;39.72;97279.25;233099;1217;140002;-57
2022/04/08 09:24:23;;;;;;;5.10;1.50;;;;;;;12.20;39.70;97286.45;233177;1217;140570;-59
2022/04/08 09:29:27;;;;;;;37.80;22.10;;;;;;;12.29;39.79;97289.30;233356;1217;139461;-57
2022/04/08 09:34:50;;;;;;;4.70;1.40;;;;;;;12.38;39.42;97299.66;233269;1217;139144;-59
2022/04/08 09:39:58;;;;;;;5.20;1.20;;;;;;;12.32;39.05;97296.19;233126;1217;142319;-59
2022/04/08 09:45:01;;;;;;;8.60;2.50;;;;;;;12.30;39.08;97296.17;233309;1217;139067;-61
2022/04/08 09:50:05;;;;;;;3.30;1.10;;;;;;;12.37;39.25;97293.58;233202;1217;140789;-60
2022/04/08 09:55:09;;;;;;;5.40;1.30;;;;;;;12.37;39.17;97286.08;233411;1217;139017;-56
2022/04/08 10:00:12;;;;;;;5.50;1.50;;;;;;;12.38;38.81;97291.48;233137;1217;138996;-60
2022/04/08 10:05:15;;;;;;;4.10;1.20;;;;;;;12.37;38.87;97289.42;233323;1217;139256;-58
2022/04/08 10:10:40;;;;;;;7.20;1.30;;;;;;;12.44;38.67;97288.63;233052;1217;140493;-61
2022/04/08 10:15:57;;;;;;;2.70;1.10;;;;;;;12.48;38.61;97289.73;233142;1217;139246;-62
2022/04/08 10:21:00;;;;;;;4.10;1.40;;;;;;;12.50;38.67;97288.48;233349;1217;139272;-61
2022/04/08 10:26:05;;;;;;;7.90;1.20;;;;;;;12.71;38.48;97283.98;233264;1216;138979;-60
2022/04/08 10:31:24;;;;;;;5.00;1.40;;;;;;;12.89;38.22;97287.54;233201;1216;140052;-60
2022/04/08 10:36:38;;;;;;;6.80;1.20;;;;;;;13.02;37.82;97301.68;233159;1217;138819;-60
2022/04/08 10:41:44;;;;;;;5.70;1.40;;;;;;;12.95;37.56;97311.80;233299;1217;139193;-60
2022/04/08 10:46:52;;;;;;;6.90;1.50;;;;;;;12.89;37.90;97304.13;233217;1217;139549;-60
2022/04/08 10:51:56;;;;;;;8.60;1.30;;;;;;;13.01;37.81;97304.85;233210;1217;139267;-60
2022/04/08 10:56:59;;;;;;;5.00;1.20;;;;;;;13.31;38.02;97295.01;233093;1219;139262;-59
2022/04/08 11:02:05;;;;;;;3.30;1.00;;;;;;;13.68;37.89;97295.23;233217;1217;139604;-59
2022/04/08 11:07:08;;;;;;;7.50;1.20;;;;;;;14.08;37.57;97297.83;233321;1217;139547;-58
2022/04/08 11:12:11;;;;;;;5.40;1.60;;;;;;;14.21;36.93;97305.48;233109;1218;138828;-60
2022/04/08 11:17:14;;;;;;;4.40;1.20;;;;;;;14.02;36.45;97309.56;233286;1217;138806;-59
2022/04/08 11:22:18;;;;;;;2.30;0.90;;;;;;;13.73;36.21;97317.13;233286;1217;139577;-60
2022/04/08 11:27:21;;;;;;;2.60;0.90;;;;;;;13.53;35.91;97316.42;233317;1217;140039;-60
2022/04/08 11:32:33;;;;;;;5.00;0.90;;;;;;;13.55;36.21;97317.22;233050;1217;139294;-58
2022/04/08 11:37:36;;;;;;;6.70;1.10;;;;;;;13.69;36.51;97321.64;233222;1218;139626;-59
2022/04/08 11:42:39;;;;;;;2.50;0.70;;;;;;;13.89;36.04;97313.34;233283;1217;138815;-58
2022/04/08 11:47:47;;;;;;;7.90;1.10;;;;;;;14.07;35.64;97299.40;233384;1217;140105;-59
2022/04/08 11:52:55;;;;;;;6.40;1.00;;;;;;;14.12;35.14;97311.89;233245;1219;138895;-59
2022/04/08 11:58:17;;;;;;;3.80;1.00;;;;;;;14.22;34.67;97310.50;233243;1217;138898;-60
2022/04/08 12:03:30;;;;;;;3.80;0.90;;;;;;;14.10;34.47;97309.64;233340;1217;139425;-57
2022/04/08 12:08:34;;;;;;;5.80;0.90;;;;;;;13.95;34.51;97301.50;233357;1217;139273;-57
2022/04/08 12:13:40;;;;;;;1.70;0.80;;;;;;;13.97;34.73;97292.38;233307;1217;139422;-58
2022/04/08 12:18:51;;;;;;;3.20;1.00;;;;;;;14.14;34.88;97294.05;233397;1217;139160;-59
2022/04/08 12:23:57;;;;;;;3.40;1.10;;;;;;;14.74;35.18;97291.29;233356;1217;139316;-58
2022/04/08 12:29:12;;;;;;;4.10;1.20;;;;;;;15.18;34.59;97283.27;233407;1217;138572;-59
2022/04/08 12:34:17;;;;;;;5.80;1.30;;;;;;;15.11;34.13;97270.23;233317;1217;139261;-58
2022/04/08 12:39:20;;;;;;;3.90;1.30;;;;;;;15.48;34.05;97282.17;233309;1217;138790;-59
2022/04/08 12:44:23;;;;;;;3.30;1.10;;;;;;;15.58;33.61;97278.64;233276;1217;139284;-58
2022/04/08 12:49:26;;;;;;;3.50;1.30;;;;;;;15.55;33.29;97271.17;233355;1217;140281;-58
2022/04/08 12:54:29;;;;;;;7.40;1.20;;;;;;;15.52;33.27;97277.18;233503;1217;141359;-58
2022/04/08 12:59:32;;;;;;;4.90;1.40;;;;;;;15.72;33.33;97265.75;233362;1217;139277;-60
2022/04/08 13:04:35;;;;;;;4.10;1.30;;;;;;;15.83;32.78;97270.61;233368;1217;138444;-59
2022/04/08 13:09:38;;;;;;;5.50;1.00;;;;;;;15.59;32.59;97269.69;233254;1217;139370;-57
2022/04/08 13:14:41;;;;;;;3.00;1.00;;;;;;;15.71;32.83;97255.65;233267;1217;138840;-58
2022/04/08 13:19:44;;;;;;;4.10;1.20;;;;;;;15.79;33.06;97245.12;233307;1217;138764;-59
2022/04/08 13:24:47;;;;;;;3.60;1.10;;;;;;;15.96;32.56;97243.38;233215;1217;139122;-59
2022/04/08 13:29:50;;;;;;;3.40;1.40;;;;;;;16.07;32.71;97231.23;233336;1217;138887;-58
2022/04/08 13:34:53;;;;;;;3.90;1.20;;;;;;;16.07;32.35;97224.25;233346;1217;139160;-58
2022/04/08 13:39:57;;;;;;;3.90;1.20;;;;;;;16.25;32.26;97217.59;233373;1217;139815;-58
2022/04/08 13:45:00;;;;;;;4.40;1.20;;;;;;;16.41;31.82;97216.31;233313;1217;138808;-58
2022/04/08 13:50:03;;;;;;;5.20;1.60;;;;;;;16.51;31.52;97202.08;233371;1217;139336;-60
2022/04/08 13:55:08;;;;;;;3.90;1.10;;;;;;;16.68;31.65;97203.46;233291;1217;139496;-58
2022/04/08 14:00:11;;;;;;;3.50;0.90;;;;;;;16.73;31.50;97200.35;233164;1217;138909;-59
2022/04/08 14:05:24;;;;;;;2.90;1.10;;;;;;;16.80;31.49;97176.36;233486;1217;139879;-59
2022/04/08 14:10:27;;;;;;;2.50;1.00;;;;;;;16.94;31.24;97174.20;233387;1216;138733;-58
2022/04/08 14:15:31;;;;;;;3.00;1.00;;;;;;;16.92;31.25;97164.66;233241;1217;140234;-58
2022/04/08 14:20:34;;;;;;;3.00;1.10;;;;;;;16.79;31.20;97156.65;233325;1217;140078;-59
2022/04/08 14:25:37;;;;;;;3.20;1.30;;;;;;;16.53;30.94;97153.75;233266;1217;139121;-58
2022/04/08 14:30:42;;;;;;;4.00;1.10;;;;;;;16.37;31.24;97148.00;233411;1217;138756;-59
2022/04/08 14:35:46;;;;;;;4.70;1.20;;;;;;;16.28;31.44;97147.02;233237;1218;138495;-59
2022/04/08 14:40:49;;;;;;;2.90;0.90;;;;;;;16.14;31.30;97147.77;233195;1217;139254;-58
2022/04/08 14:45:52;;;;;;;8.60;1.40;;;;;;;15.95;31.44;97145.98;233248;1217;138864;-61
2022/04/08 14:50:55;;;;;;;5.90;1.60;;;;;;;15.94;31.89;97128.13;233173;1217;139403;-59
2022/04/08 14:56:00;;;;;;;2.70;1.10;;;;;;;16.09;32.12;97120.06;233291;1217;140474;-59
2022/04/08 15:01:04;;;;;;;4.50;1.60;;;;;;;16.23;32.64;97119.86;233026;1217;140133;-58
2022/04/08 15:06:08;;;;;;;6.00;1.30;;;;;;;16.29;32.37;97105.39;232938;1217;139216;-60
2022/04/08 15:11:12;;;;;;;4.80;1.50;;;;;;;16.25;32.17;97103.50;233442;1217;138890;-59
2022/04/08 15:16:15;;;;;;;3.50;1.20;;;;;;;16.17;32.33;97102.13;233842;1217;139723;-61
2022/04/08 15:21:18;;;;;;;3.10;1.10;;;;;;;16.11;31.99;97096.18;233908;1216;138697;-61
2022/04/08 15:27:15;;;;;;;8.50;4.00;;;;;;;16.03;31.81;97099.95;230778;1232;655458;-59
2022/04/08 15:32:18;;;;;;;5.80;1.90;;;;;;;15.78;31.76;97105.20;233210;1221;137881;-58
2022/04/08 15:37:26;;;;;;;5.10;1.40;;;;;;;15.48;31.66;97100.02;232724;1223;138647;-58
2022/04/08 15:42:37;;;;;;;4.20;1.50;;;;;;;15.28;31.92;97105.88;232787;1224;138595;-60
2022/04/08 15:47:46;;;;;;;6.60;1.90;;;;;;;15.11;31.92;97107.23;233209;1223;137979;-58
2022/04/08 15:52:50;;;;;;;3.00;1.20;;;;;;;14.97;32.10;97110.06;233369;1222;137798;-57
2022/04/08 15:57:53;;;;;;;5.30;2.60;;;;;;;14.89;32.32;97115.01;233310;1223;138044;-56
2022/04/08 16:02:56;;;;;;;6.10;1.40;;;;;;;14.80;32.36;97122.22;233345;1223;138031;-59
2022/04/08 16:08:00;;;;;;;6.20;1.70;;;;;;;14.77;32.39;97127.27;232975;1223;137799;-59
2022/04/08 16:13:03;;;;;;;4.90;1.60;;;;;;;14.72;32.66;97131.70;233152;1223;138171;-59
2022/04/08 16:18:06;;;;;;;4.60;1.50;;;;;;;14.66;32.59;97140.43;232616;1223;138354;-59
2022/04/08 16:23:09;;;;;;;3.40;1.40;;;;;;;14.60;32.72;97148.58;232971;1223;138216;-58
2022/04/08 16:28:12;;;;;;;5.90;1.60;;;;;;;14.51;32.89;97146.35;233049;1223;138867;-59
2022/04/08 16:33:15;;;;;;;3.80;1.60;;;;;;;14.40;33.17;97153.34;233203;1221;138087;-59
2022/04/08 16:38:23;;;;;;;8.70;1.50;;;;;;;14.34;33.29;97155.77;233005;1223;138573;-60
2022/04/08 16:43:26;;;;;;;6.90;1.60;;;;;;;14.24;33.43;97187.20;232644;1223;140929;-59
2022/04/08 16:48:29;;;;;;;3.50;1.30;;;;;;;13.95;34.98;97201.48;232953;1223;138096;-56
2022/04/08 16:53:32;;;;;;;3.20;1.30;;;;;;;13.69;35.64;97207.45;233462;1222;138307;-57
2022/04/08 16:58:35;;;;;;;4.30;1.50;;;;;;;13.51;36.06;97226.60;233691;1219;138105;-56
2022/04/08 17:03:39;;;;;;;7.40;3.10;;;;;;;13.27;37.16;97226.35;233669;1220;138138;-58
2022/04/08 17:08:46;;;;;;;5.20;1.60;;;;;;;13.02;38.48;97240.33;233614;1219;137796;-59
2022/04/08 17:13:49;;;;;;;4.90;1.40;;;;;;;12.71;39.07;97238.56;233649;1219;138092;-59
2022/04/08 17:19:02;;;;;;;4.20;1.50;;;;;;;12.48;40.01;97230.52;233603;1219;138075;-59
2022/04/08 17:24:05;;;;;;;4.50;1.50;;;;;;;12.27;41.37;97234.95;233674;1219;139461;-60
2022/04/08 17:29:08;;;;;;;3.30;1.60;;;;;;;12.00;41.96;97234.02;233613;1220;138883;-60
2022/04/08 17:34:11;;;;;;;4.80;1.50;;;;;;;11.75;43.25;97235.88;233563;1220;138600;-58
2022/04/08 17:39:16;;;;;;;4.30;1.90;;;;;;;11.56;44.19;97239.28;233387;1220;139749;-59
2022/04/08 17:44:20;;;;;;;3.20;1.80;;;;;;;11.38;45.07;97240.49;233548;1220;139280;-59
2022/04/08 17:49:27;;;;;;;5.40;1.90;;;;;;;11.29;45.75;97255.84;233396;1220;138937;-58
2022/04/08 17:54:33;;;;;;;4.90;1.80;;;;;;;11.20;46.42;97258.83;233602;1219;138218;-57
2022/04/08 17:59:36;;;;;;;3.10;1.60;;;;;;;11.05;47.10;97260.57;233677;1219;138286;-59
2022/04/08 18:04:41;;;;;;;4.70;2.00;;;;;;;10.93;47.85;97246.77;233579;1217;138350;-57
2022/04/08 18:09:44;;;;;;;19.00;11.30;;;;;;;10.80;48.47;97241.45;233542;1219;138265;-57
2022/04/08 18:14:47;;;;;;;9.00;3.70;;;;;;;10.75;49.11;97234.81;233613;1219;138692;-58
2022/04/08 18:19:51;;;;;;;5.60;2.50;;;;;;;10.62;49.30;97237.56;233619;1219;138378;-58
2022/04/08 18:24:56;;;;;;;4.70;2.10;;;;;;;10.53;49.88;97234.32;233718;1219;138375;-59
2022/04/08 18:29:59;;;;;;;5.80;2.30;;;;;;;10.43;50.64;97226.39;233690;1219;138529;-57
2022/04/08 18:35:11;;;;;;;6.20;2.30;;;;;;;10.32;51.27;97221.34;233720;1219;140193;-59
2022/04/08 18:40:14;;;;;;;5.00;2.20;;;;;;;10.23;51.68;97210.77;233736;1219;138299;-59
2022/04/08 18:45:17;;;;;;;3.50;2.30;;;;;;;10.16;52.22;97203.06;233710;1219;138668;-60
2022/04/08 18:50:21;;;;;;;5.50;2.60;;;;;;;10.10;52.56;97204.09;233589;1219;140443;-58
2022/04/08 18:55:24;;;;;;;4.80;2.30;;;;;;;10.09;52.95;97195.00;233627;1220;139006;-58
2022/04/08 19:00:28;;;;;;;4.00;2.30;;;;;;;10.05;53.09;97186.66;233737;1219;138392;-58
2022/04/08 19:05:31;;;;;;;9.10;4.00;;;;;;;10.04;53.64;97174.92;233810;1219;140981;-55
2022/04/08 19:10:36;;;;;;;5.40;2.70;;;;;;;10.04;53.86;97165.54;233733;1219;137879;-60
2022/04/08 19:15:39;;;;;;;5.40;2.60;;;;;;;10.04;54.08;97153.64;233662;1219;138287;-60
2022/04/08 19:20:42;;;;;;;6.30;2.90;;;;;;;10.05;54.44;97141.50;233578;1218;138488;-60
2022/04/08 19:25:45;;;;;;;5.20;2.60;;;;;;;10.03;54.82;97139.41;233570;1220;139857;-62
2022/04/08 19:30:49;;;;;;;7.40;2.70;;;;;;;10.00;55.15;97113.48;233555;1219;138324;-59
2022/04/08 19:35:52;;;;;;;28.90;20.70;;;;;;;10.06;55.82;97088.58;233549;1219;138226;-59
2022/04/08 19:40:55;;;;;;;8.20;3.70;;;;;;;10.23;56.07;97101.39;233663;1219;139226;-60
2022/04/08 19:45:58;;;;;;;6.50;3.40;;;;;;;10.33;55.99;97075.55;233630;1220;139335;-59
2022/04/08 19:51:01;;;;;;;7.10;3.20;;;;;;;10.32;55.92;97056.96;233656;1218;138809;-61
2022/04/08 19:56:05;;;;;;;73.90;48.00;;;;;;;10.23;56.03;97073.91;233896;1217;138207;-60
2022/04/08 20:01:08;;;;;;;19.10;12.60;;;;;;;10.31;56.62;97069.52;233799;1217;138677;-60
2022/04/08 20:06:12;;;;;;;5.10;2.60;;;;;;;10.39;56.60;97049.20;233594;1219;138697;-58
2022/04/08 20:11:15;;;;;;;3.50;1.90;;;;;;;10.37;56.39;97052.46;233705;1217;138695;-58
2022/04/08 20:16:18;;;;;;;5.10;2.20;;;;;;;10.22;56.22;97045.48;233873;1214;138856;-60
2022/04/08 20:21:22;;;;;;;7.10;2.30;;;;;;;10.07;56.27;97039.98;233792;1217;139282;-61
2022/04/08 20:26:25;;;;;;;5.70;2.20;;;;;;;10.00;56.68;97031.08;233753;1217;139191;-60
2022/04/08 20:31:30;;;;;;;125.40;94.70;;;;;;;10.05;57.14;97018.23;233839;1217;139184;-60
2022/04/08 20:36:34;;;;;;;11.90;5.10;;;;;;;10.23;57.11;97014.60;233579;1219;139267;-63
2022/04/08 20:41:37;;;;;;;7.90;4.00;;;;;;;10.26;56.96;97015.58;233702;1217;138822;-59
2022/04/08 20:46:40;;;;;;;5.50;3.40;;;;;;;10.19;57.13;97005.30;233725;1217;138160;-58
2022/04/08 20:51:43;;;;;;;8.50;4.30;;;;;;;10.11;57.15;97012.26;233687;1217;138492;-59
2022/04/08 20:56:47;;;;;;;7.70;4.70;;;;;;;10.05;57.44;96995.15;233591;1217;138441;-58
2022/04/08 21:01:51;;;;;;;5.40;3.70;;;;;;;9.94;57.71;96986.95;233520;1217;138794;-60
2022/04/08 21:06:57;;;;;;;10.40;4.20;;;;;;;9.88;58.09;96984.85;233116;1219;138216;-59
2022/04/08 21:12:00;;;;;;;6.60;3.40;;;;;;;9.82;58.17;96982.73;233086;1217;138791;-58
2022/04/08 21:17:04;;;;;;;9.60;4.40;;;;;;;9.76;58.21;96960.45;233346;1217;138268;-59
2022/04/08 21:22:07;;;;;;;7.30;3.80;;;;;;;9.72;58.61;96944.19;233115;1218;138199;-60
2022/04/08 21:27:10;;;;;;;6.70;4.10;;;;;;;9.71;58.82;96961.98;233146;1219;138915;-60
2022/04/08 21:32:14;;;;;;;8.10;4.80;;;;;;;9.70;58.98;96953.91;233226;1217;140484;-62
2022/04/08 21:37:23;;;;;;;7.80;4.60;;;;;;;9.73;59.04;96944.42;233161;1217;138244;-60
2022/04/08 21:42:26;;;;;;;8.70;4.70;;;;;;;9.78;59.29;96949.52;233258;1217;139060;-61
2022/04/08 21:47:29;;;;;;;8.50;4.60;;;;;;;9.84;59.41;96938.15;233351;1219;138172;-61
2022/04/08 21:52:33;;;;;;;9.00;4.80;;;;;;;9.85;59.43;96919.55;233108;1218;138327;-62
2022/04/08 21:57:36;;;;;;;9.20;5.20;;;;;;;9.85;59.31;96922.95;233036;1219;139475;-61
2022/04/08 22:02:39;;;;;;;8.80;5.20;;;;;;;9.80;59.20;96918.80;233124;1219;139009;-60
2022/04/08 22:07:42;;;;;;;10.50;5.10;;;;;;;9.75;59.58;96917.51;233133;1219;138038;-61
2022/04/08 22:12:46;;;;;;;8.30;4.40;;;;;;;9.69;59.49;96919.10;232975;1219;138427;-62
2022/04/08 22:17:50;;;;;;;8.10;4.50;;;;;;;9.63;59.69;96925.85;233153;1219;137946;-60
2022/04/08 22:22:53;;;;;;;6.80;4.50;;;;;;;9.61;59.97;96932.92;233168;1219;139684;-60
2022/04/08 22:27:59;;;;;;;8.00;4.60;;;;;;;9.66;60.11;96923.70;233023;1220;138791;-61
2022/04/08 22:33:03;;;;;;;9.90;5.10;;;;;;;9.68;60.05;96920.23;233165;1218;137809;-63
2022/04/08 22:38:06;;;;;;;8.90;5.30;;;;;;;9.68;60.25;96909.99;233214;1217;138607;-61
2022/04/08 22:43:11;;;;;;;9.90;5.20;;;;;;;9.69;60.28;96905.13;233180;1219;138516;-60
2022/04/08 22:48:15;;;;;;;7.70;4.50;;;;;;;9.69;60.39;96902.99;233141;1220;138134;-62
2022/04/08 22:53:20;;;;;;;8.30;4.70;;;;;;;9.65;60.52;96897.73;233175;1219;139809;-59
2022/04/08 23:03:45;;;;;;;9.20;4.90;;;;;;;9.54;60.69;96892.51;233345;1219;138502;-61
2022/04/08 23:08:49;;;;;;;9.20;5.00;;;;;;;9.49;60.89;96886.10;233304;1217;138639;-61
2022/04/08 23:13:53;;;;;;;7.10;4.80;;;;;;;9.48;60.97;96885.86;233048;1219;138930;-61
2022/04/08 23:18:56;;;;;;;8.00;4.80;;;;;;;9.50;61.23;96888.14;233252;1217;138777;-60
2022/04/08 23:23:59;;;;;;;6.80;4.70;;;;;;;9.54;61.32;96877.51;233291;1219;138635;-60